Time;durP1;ratioP1;P1;durP2;ratioP2;P2;SDS_P1;SDS_P2;PMS_P1;PMS_P2;Temp;Humidity;BMP_temperature;BMP_pressure;BME280_temperature;BME280_humidity;BME280_pressure;Samples;Min_cycle;Max_cycle;Signal;HPM_P1;HPM_P2
2022/11/24 00:02:11;;;;;;;50.57;26.60;;;;;;;9.50;100.00;98363.25;5071258;28;20198;-56
2022/11/24 00:04:38;;;;;;;39.53;25.60;;;;;;;9.52;100.00;98364.03;5071697;28;20685;-56
2022/11/24 00:07:05;;;;;;;42.77;26.67;;;;;;;9.46;100.00;98366.88;5071533;28;20662;-54
2022/11/24 00:09:32;;;;;;;43.43;27.13;;;;;;;9.50;100.00;98365.00;5070983;28;20323;-55
2022/11/24 00:12:00;;;;;;;41.00;26.90;;;;;;;9.45;100.00;98368.63;5069864;28;20200;-55
2022/11/24 00:14:27;;;;;;;47.43;27.93;;;;;;;9.37;100.00;98368.09;5070700;28;20325;-53
2022/11/24 00:16:54;;;;;;;42.10;26.77;;;;;;;9.30;100.00;98373.59;5070878;28;20199;-57
2022/11/24 00:19:22;;;;;;;43.53;27.50;;;;;;;9.33;100.00;98378.66;5070895;28;20274;-56
2022/11/24 00:21:49;;;;;;;44.23;27.67;;;;;;;9.20;100.00;98373.16;5071024;28;20569;-56
2022/11/24 00:24:16;;;;;;;44.43;28.67;;;;;;;9.17;100.00;98370.69;5070703;28;20195;-54
2022/11/24 00:26:43;;;;;;;52.37;33.20;;;;;;;9.13;100.00;98366.56;5070669;28;20283;-54
2022/11/24 00:29:11;;;;;;;53.43;31.93;;;;;;;9.07;100.00;98369.38;5070509;28;20196;-54
2022/11/24 00:31:39;;;;;;;49.60;29.67;;;;;;;8.90;100.00;98364.06;5070940;28;20196;-54
2022/11/24 00:34:09;;;;;;;49.30;31.17;;;;;;;8.81;100.00;98359.22;5070621;28;20306;-54
2022/11/24 00:36:38;;;;;;;48.40;30.07;;;;;;;8.82;100.00;98342.81;5070736;28;20587;-54
2022/11/24 00:39:07;;;;;;;43.93;28.00;;;;;;;8.98;100.00;98357.66;5070202;28;20206;-54
2022/11/24 00:41:34;;;;;;;46.50;29.73;;;;;;;8.91;100.00;98360.56;5070271;28;20200;-56
2022/11/24 00:44:01;;;;;;;50.80;29.40;;;;;;;8.94;100.00;98361.28;5070288;28;20708;-57
2022/11/24 00:46:29;;;;;;;55.20;31.33;;;;;;;8.87;100.00;98359.84;5070338;28;20199;-56
2022/11/24 00:48:56;;;;;;;43.87;28.37;;;;;;;8.72;100.00;98369.06;5070137;28;20203;-56
2022/11/24 00:51:25;;;;;;;49.93;30.73;;;;;;;8.62;100.00;98362.56;5070354;28;20210;-56
2022/11/24 00:53:55;;;;;;;53.33;32.00;;;;;;;8.54;100.00;98363.78;5070035;28;20429;-56
2022/11/24 00:56:22;;;;;;;49.20;29.00;;;;;;;8.57;100.00;98369.69;5070418;28;20585;-56
2022/11/24 00:58:49;;;;;;;49.80;29.77;;;;;;;8.53;100.00;98364.66;5070347;28;20703;-56
2022/11/24 01:01:18;;;;;;;49.43;27.77;;;;;;;8.46;100.00;98364.06;5070163;28;20192;-56
2022/11/24 01:03:45;;;;;;;41.90;25.60;;;;;;;8.53;100.00;98359.50;5069611;28;20199;-56
2022/11/24 01:06:14;;;;;;;39.10;23.10;;;;;;;8.56;100.00;98373.16;5069692;28;20203;-57
2022/11/24 01:08:42;;;;;;;36.40;22.50;;;;;;;8.56;100.00;98362.81;5069832;28;20289;-56
2022/11/24 01:11:13;;;;;;;34.97;21.03;;;;;;;8.67;100.00;98377.91;5070142;28;20677;-56
2022/11/24 01:13:41;;;;;;;35.70;23.00;;;;;;;8.66;100.00;98376.22;5069808;28;20199;-56
2022/11/24 01:16:14;;;;;;;39.40;23.20;;;;;;;8.66;100.00;98382.25;5070001;28;20585;-57
2022/11/24 01:18:41;;;;;;;37.17;23.90;;;;;;;8.66;100.00;98371.91;5070102;28;20192;-56
2022/11/24 01:21:08;;;;;;;32.97;22.30;;;;;;;8.66;100.00;98369.31;5069857;28;20206;-55
2022/11/24 01:23:35;;;;;;;38.40;23.77;;;;;;;8.62;100.00;98374.66;5069498;28;20560;-54
2022/11/24 01:26:05;;;;;;;39.30;24.90;;;;;;;8.62;100.00;98375.50;5069784;28;20290;-54
2022/11/24 01:28:34;;;;;;;40.20;26.03;;;;;;;8.54;100.00;98382.72;5069960;28;20215;-53
2022/11/24 01:31:02;;;;;;;39.23;25.37;;;;;;;8.48;100.00;98380.34;5069904;28;20196;-54
2022/11/24 01:33:29;;;;;;;37.77;23.50;;;;;;;8.49;100.00;98384.63;5070240;28;20207;-53
2022/11/24 01:35:57;;;;;;;35.97;23.57;;;;;;;8.52;100.00;98388.84;5070147;28;20319;-54
2022/11/24 01:38:25;;;;;;;38.57;24.47;;;;;;;8.58;100.00;98389.44;5070141;28;20204;-54
2022/11/24 01:41:01;;;;;;;40.93;25.87;;;;;;;8.53;100.00;98395.69;5070223;28;20207;-54
2022/11/24 01:43:28;;;;;;;36.73;25.20;;;;;;;8.52;100.00;98388.84;5070165;28;20204;-54
2022/11/24 01:45:58;;;;;;;37.57;24.67;;;;;;;8.46;100.00;98384.75;5070167;28;20642;-53
2022/11/24 01:48:30;;;;;;;38.93;25.60;;;;;;;8.48;100.00;98387.25;5069612;28;20200;-54
2022/11/24 01:51:07;;;;;;;38.50;24.27;;;;;;;8.43;100.00;98377.13;5070138;28;20206;-54
2022/11/24 01:53:34;;;;;;;36.13;23.60;;;;;;;8.48;100.00;98382.94;5069876;28;20206;-54
2022/11/24 01:56:02;;;;;;;38.43;23.97;;;;;;;8.50;100.00;98391.47;5070076;28;20228;-55
2022/11/24 01:58:33;;;;;;;35.30;22.87;;;;;;;8.35;100.00;98394.66;5069993;28;20201;-54
2022/11/24 02:01:01;;;;;;;35.13;23.20;;;;;;;8.20;100.00;98387.44;5069937;28;20206;-54
2022/11/24 02:03:34;;;;;;;35.70;23.23;;;;;;;8.09;100.00;98389.59;5069811;28;20204;-55
2022/11/24 02:06:04;;;;;;;36.00;23.53;;;;;;;8.11;100.00;98387.78;5069914;28;20235;-56
2022/11/24 02:08:42;;;;;;;31.73;22.13;;;;;;;8.04;100.00;98389.75;5069776;28;20230;-55
2022/11/24 02:11:09;;;;;;;30.37;20.83;;;;;;;8.15;100.00;98394.50;5069801;28;20235;-56
2022/11/24 02:13:39;;;;;;;29.23;20.63;;;;;;;8.09;100.00;98395.59;5070131;28;20688;-54
2022/11/24 02:16:10;;;;;;;37.33;21.87;;;;;;;8.21;100.00;98396.88;5069700;28;20643;-54
2022/11/24 02:18:38;;;;;;;29.77;19.83;;;;;;;8.15;100.00;98392.78;5069302;28;20577;-54
2022/11/24 02:21:06;;;;;;;32.73;21.17;;;;;;;8.09;100.00;98393.00;5069171;28;20195;-54
2022/11/24 02:23:40;;;;;;;28.30;20.13;;;;;;;8.07;100.00;98391.38;5069134;28;20196;-54
2022/11/24 02:26:12;;;;;;;28.37;19.47;;;;;;;8.06;100.00;98389.69;5069574;28;20198;-57
2022/11/24 02:28:41;;;;;;;28.17;19.73;;;;;;;7.99;100.00;98379.59;5069757;28;20254;-54
2022/11/24 02:31:07;;;;;;;32.40;21.27;;;;;;;7.99;100.00;98384.75;5069747;28;20203;-55
2022/11/24 02:33:35;;;;;;;30.83;19.83;;;;;;;7.90;100.00;98382.47;5069595;28;20216;-57
2022/11/24 02:36:02;;;;;;;29.13;21.03;;;;;;;7.98;100.00;98371.88;5072374;28;20231;-57
2022/11/24 02:38:31;;;;;;;28.17;19.87;;;;;;;7.92;100.00;98372.94;5073223;28;20222;-55
2022/11/24 02:41:00;;;;;;;29.73;20.27;;;;;;;7.98;100.00;98388.25;5073633;28;20673;-56
2022/11/24 02:43:31;;;;;;;30.50;20.30;;;;;;;7.92;100.00;98388.44;5073485;28;20698;-56
2022/11/24 02:45:59;;;;;;;29.60;19.80;;;;;;;7.86;100.00;98377.50;5073241;28;20196;-55
2022/11/24 02:48:27;;;;;;;28.63;19.47;;;;;;;7.80;100.00;98383.72;5073230;28;20595;-56
2022/11/24 02:50:54;;;;;;;29.37;20.40;;;;;;;7.57;100.00;98383.69;5073297;28;20665;-54
2022/11/24 02:53:21;;;;;;;31.87;19.90;;;;;;;7.67;100.00;98382.50;5073051;28;20290;-56
2022/11/24 02:55:47;;;;;;;30.43;20.17;;;;;;;7.61;100.00;98382.69;5073072;28;20327;-55
2022/11/24 02:58:14;;;;;;;29.33;20.07;;;;;;;7.72;100.00;98388.31;5073124;28;20204;-53
2022/11/24 03:00:41;;;;;;;29.63;18.97;;;;;;;7.77;100.00;98383.84;5073124;28;20689;-54
2022/11/24 03:03:10;;;;;;;29.27;19.70;;;;;;;7.74;100.00;98386.53;5072883;28;20196;-53
2022/11/24 03:05:37;;;;;;;27.77;19.33;;;;;;;7.70;100.00;98381.50;5072995;28;20198;-54
2022/11/24 03:08:04;;;;;;;29.93;19.57;;;;;;;7.60;100.00;98375.84;5072779;28;20716;-54
2022/11/24 03:10:31;;;;;;;26.27;18.40;;;;;;;7.58;100.00;98383.63;5072752;28;20212;-54
2022/11/24 03:12:58;;;;;;;24.47;17.90;;;;;;;7.67;100.00;98391.97;5073144;28;20583;-55
2022/11/24 03:15:25;;;;;;;23.17;16.40;;;;;;;7.59;100.00;98399.97;5072659;28;20220;-54
2022/11/24 03:17:55;;;;;;;23.40;17.37;;;;;;;7.58;100.00;98398.28;5072808;28;20206;-54
2022/11/24 03:20:23;;;;;;;23.23;16.40;;;;;;;7.57;100.00;98401.75;5072776;28;20200;-57
2022/11/24 03:22:50;;;;;;;26.40;16.67;;;;;;;7.59;100.00;98400.81;5072840;28;20206;-57
2022/11/24 03:25:17;;;;;;;22.07;16.13;;;;;;;7.52;100.00;98407.09;5072652;28;20665;-55
2022/11/24 03:27:44;;;;;;;22.30;15.60;;;;;;;7.48;100.00;98412.41;5072750;28;20226;-57
2022/11/24 03:30:12;;;;;;;21.47;15.17;;;;;;;7.53;100.00;98407.94;5072419;28;20203;-57
2022/11/24 03:32:39;;;;;;;21.37;15.00;;;;;;;7.52;100.00;98416.56;5072612;28;20196;-57
2022/11/24 03:35:06;;;;;;;20.63;14.77;;;;;;;7.53;100.00;98421.69;5072263;28;20238;-57
2022/11/24 03:37:34;;;;;;;26.83;14.83;;;;;;;7.47;100.00;98414.13;5072548;28;20665;-56
2022/11/24 03:40:01;;;;;;;20.83;14.23;;;;;;;7.48;100.00;98413.25;5072418;28;20207;-57
2022/11/24 03:42:28;;;;;;;17.57;13.70;;;;;;;7.42;100.00;98420.38;5072226;28;20196;-57
2022/11/24 03:44:55;;;;;;;23.30;14.20;;;;;;;7.35;100.00;98413.69;5072273;28;20202;-56
2022/11/24 03:47:22;;;;;;;22.43;14.83;;;;;;;7.40;100.00;98422.16;5072291;28;20606;-57
2022/11/24 03:49:49;;;;;;;21.17;14.70;;;;;;;7.27;100.00;98407.06;5072382;28;20287;-57
2022/11/24 03:52:16;;;;;;;25.67;16.50;;;;;;;7.43;100.00;98424.63;5071988;28;20206;-55
2022/11/24 03:54:46;;;;;;;19.40;14.17;;;;;;;7.37;100.00;98427.41;5072139;28;20230;-56
2022/11/24 03:57:13;;;;;;;22.03;14.57;;;;;;;7.34;100.00;98419.75;5072033;28;20277;-57
2022/11/24 03:59:40;;;;;;;21.63;15.13;;;;;;;7.36;100.00;98428.28;5062653;28;20224;-56
2022/11/24 04:02:07;;;;;;;19.57;14.73;;;;;;;7.37;100.00;98424.81;5065782;28;20230;-57
2022/11/24 04:04:34;;;;;;;20.27;14.63;;;;;;;7.30;100.00;98426.78;5071663;28;20223;-57
2022/11/24 04:07:01;;;;;;;22.70;15.23;;;;;;;7.20;100.00;98422.81;5070877;28;20224;-56
2022/11/24 04:09:28;;;;;;;23.13;14.17;;;;;;;7.24;100.00;98427.81;5071477;28;20235;-56
2022/11/24 04:14:40;;;;;;;20.67;14.03;;;;;;;7.39;100.00;98428.19;5040209;28;20871;-56
2022/11/24 04:17:07;;;;;;;23.20;15.17;;;;;;;7.38;100.00;98427.34;5071320;28;20222;-57
2022/11/24 04:19:34;;;;;;;21.40;14.67;;;;;;;7.35;100.00;98426.59;5071445;28;20255;-54
2022/11/24 04:22:01;;;;;;;22.37;14.20;;;;;;;7.40;100.00;98428.16;5070377;28;20223;-54
2022/11/24 04:24:27;;;;;;;20.20;13.33;;;;;;;7.51;100.00;98436.38;5070882;28;20220;-55
2022/11/24 04:26:56;;;;;;;25.47;14.30;;;;;;;7.56;100.00;98436.25;5071096;28;20226;-54
2022/11/24 04:29:23;;;;;;;21.27;13.70;;;;;;;7.57;100.00;98437.91;5071495;28;20725;-54
2022/11/24 04:31:50;;;;;;;18.37;12.50;;;;;;;7.59;100.00;98443.88;5071275;28;20235;-57
2022/11/24 04:34:17;;;;;;;20.87;13.07;;;;;;;7.60;100.00;98440.38;5070960;28;20600;-57
2022/11/24 04:36:44;;;;;;;16.27;12.80;;;;;;;7.60;100.00;98437.81;5069790;28;20227;-55
2022/11/24 04:39:10;;;;;;;21.87;13.07;;;;;;;7.65;100.00;98444.50;5070829;28;20308;-56
2022/11/24 04:41:37;;;;;;;18.93;13.83;;;;;;;7.70;100.00;98448.66;5070165;28;20224;-56
2022/11/24 04:44:06;;;;;;;20.13;12.83;;;;;;;7.74;100.00;98445.94;5069878;28;20593;-57
2022/11/24 04:46:33;;;;;;;20.00;13.37;;;;;;;7.76;100.00;98446.72;5069363;28;20648;-54
2022/11/24 04:48:59;;;;;;;18.47;12.87;;;;;;;7.74;100.00;98450.25;5065406;28;20212;-53
2022/11/24 04:51:26;;;;;;;17.13;12.83;;;;;;;7.68;100.00;98440.13;5069084;28;20203;-53
2022/11/24 04:53:53;;;;;;;16.97;12.57;;;;;;;7.68;100.00;98448.72;5069902;28;20198;-52
2022/11/24 04:56:20;;;;;;;19.77;12.37;;;;;;;7.66;100.00;98453.09;5069716;28;20211;-53
2022/11/24 04:58:48;;;;;;;17.40;12.27;;;;;;;7.64;100.00;98447.16;5069372;28;20196;-54
2022/11/24 05:01:16;;;;;;;16.87;12.40;;;;;;;7.67;100.00;98454.78;5069849;28;20211;-54
2022/11/24 05:03:43;;;;;;;13.83;11.53;;;;;;;7.69;100.00;98455.56;5069996;28;20195;-51
2022/11/24 05:06:10;;;;;;;16.37;11.67;;;;;;;7.72;100.00;98458.06;5069646;28;20204;-52
2022/11/24 05:08:37;;;;;;;16.33;12.20;;;;;;;7.64;100.00;98454.88;5069517;28;20616;-53
2022/11/24 05:11:05;;;;;;;17.93;12.60;;;;;;;7.65;100.00;98460.00;5070139;28;20200;-55
2022/11/24 05:13:32;;;;;;;18.70;13.03;;;;;;;7.62;100.00;98461.84;5070467;28;20583;-58
2022/11/24 05:16:00;;;;;;;20.77;14.13;;;;;;;7.58;100.00;98463.66;5069296;28;20693;-57
2022/11/24 05:18:29;;;;;;;19.70;12.90;;;;;;;7.58;100.00;98465.41;5069399;28;20253;-60
2022/11/24 05:20:57;;;;;;;18.53;11.40;;;;;;;7.58;100.00;98473.16;5055842;28;20232;-59
2022/11/24 05:23:24;;;;;;;15.37;11.60;;;;;;;7.51;100.00;98469.09;5049660;28;20720;-55
2022/11/24 05:25:51;;;;;;;20.17;11.90;;;;;;;7.49;100.00;98470.88;5068782;28;20227;-52
2022/11/24 05:28:19;;;;;;;18.87;12.67;;;;;;;7.45;100.00;98479.66;5068771;28;20200;-55
2022/11/24 05:30:46;;;;;;;18.27;12.17;;;;;;;7.40;100.00;98481.53;5068526;28;20211;-55
2022/11/24 05:33:17;;;;;;;13.80;11.60;;;;;;;7.46;100.00;98486.47;5068722;28;20192;-55
2022/11/24 05:35:47;;;;;;;21.80;12.73;;;;;;;7.45;100.00;98467.56;5069840;28;20314;-56
2022/11/24 05:38:14;;;;;;;19.50;12.77;;;;;;;7.55;100.00;98475.88;5069882;28;20196;-55
2022/11/24 05:40:42;;;;;;;21.10;13.17;;;;;;;7.54;100.00;98469.00;5070262;28;20219;-55
2022/11/24 05:43:11;;;;;;;20.10;13.30;;;;;;;7.55;100.00;98476.72;5070012;28;20196;-55
2022/11/24 05:45:38;;;;;;;21.97;15.60;;;;;;;7.59;100.00;98480.00;5069995;28;20247;-55
2022/11/24 05:48:06;;;;;;;22.07;14.10;;;;;;;7.59;100.00;98487.75;5069960;28;20210;-55
2022/11/24 05:50:34;;;;;;;20.50;14.47;;;;;;;7.60;100.00;98484.28;5068555;28;20211;-55
2022/11/24 05:53:07;;;;;;;23.17;14.13;;;;;;;7.66;100.00;98494.44;5069406;28;20196;-54
2022/11/24 05:55:35;;;;;;;23.53;14.23;;;;;;;7.71;100.00;98502.00;5069910;28;20230;-55
2022/11/24 05:58:04;;;;;;;28.17;14.43;;;;;;;7.81;100.00;98499.06;5069915;28;20204;-54
2022/11/24 06:00:31;;;;;;;19.07;14.00;;;;;;;7.84;100.00;98498.13;5070038;28;20204;-55
2022/11/24 06:02:59;;;;;;;25.70;15.30;;;;;;;7.84;100.00;98491.22;5069825;28;20196;-54
2022/11/24 06:05:27;;;;;;;24.53;14.87;;;;;;;7.80;100.00;98481.03;5069358;28;20598;-54
2022/11/24 06:07:54;;;;;;;20.83;14.27;;;;;;;7.95;100.00;98512.34;5069266;28;20749;-54
2022/11/24 06:10:23;;;;;;;18.17;13.50;;;;;;;8.09;100.00;98513.63;5071281;28;20206;-54
2022/11/24 06:12:51;;;;;;;20.63;14.20;;;;;;;8.23;100.00;98521.75;5073844;28;20206;-54
2022/11/24 06:15:18;;;;;;;29.03;16.37;;;;;;;8.27;100.00;98520.72;5073468;28;20232;-53
2022/11/24 06:17:45;;;;;;;31.53;18.80;;;;;;;8.25;100.00;98525.09;5073753;28;20678;-53
2022/11/24 06:20:12;;;;;;;33.60;21.10;;;;;;;8.20;100.00;98522.69;5073139;28;20196;-54
2022/11/24 06:22:39;;;;;;;39.83;20.30;;;;;;;8.31;100.00;98524.91;5073251;28;20207;-54
2022/11/24 06:25:06;;;;;;;38.60;20.37;;;;;;;8.25;100.00;98525.09;5073524;28;20210;-54
2022/11/24 06:27:34;;;;;;;40.17;22.37;;;;;;;8.41;100.00;98531.47;5073371;28;20200;-55
2022/11/24 06:30:02;;;;;;;54.50;24.07;;;;;;;8.39;100.00;98533.25;5073710;28;20200;-54
2022/11/24 06:32:29;;;;;;;45.00;25.97;;;;;;;8.43;100.00;98534.84;5073589;28;20204;-56
2022/11/24 06:34:56;;;;;;;38.03;24.30;;;;;;;8.55;100.00;98538.72;5073407;28;20208;-56
2022/11/24 06:37:23;;;;;;;46.23;24.47;;;;;;;8.66;100.00;98540.03;5073199;28;20224;-56
2022/11/24 06:39:50;;;;;;;32.30;23.40;;;;;;;8.74;100.00;98542.31;5073321;28;20596;-56
2022/11/24 06:42:17;;;;;;;38.97;21.47;;;;;;;8.76;100.00;98537.09;5073174;28;20290;-56
2022/11/24 06:44:47;;;;;;;36.60;18.20;;;;;;;8.91;100.00;98541.72;5073266;28;20203;-55
2022/11/24 06:47:14;;;;;;;24.07;15.87;;;;;;;8.93;100.00;98547.63;5073314;28;20200;-55
2022/11/24 06:49:41;;;;;;;18.67;13.03;;;;;;;8.97;100.00;98531.94;5073393;28;20211;-54
2022/11/24 06:52:08;;;;;;;22.20;11.23;;;;;;;9.22;100.00;98542.22;5072762;28;20779;-54
2022/11/24 06:54:35;;;;;;;12.97;9.77;;;;;;;9.40;100.00;98549.25;5072451;28;20200;-56
2022/11/24 06:57:01;;;;;;;18.43;9.50;;;;;;;9.37;100.00;98549.38;5072533;28;20227;-55
2022/11/24 06:59:28;;;;;;;21.33;10.40;;;;;;;9.45;100.00;98552.53;5072905;28;20593;-55
2022/11/24 07:01:57;;;;;;;21.47;10.53;;;;;;;9.51;100.00;98554.00;5072990;28;20227;-55
2022/11/24 07:04:23;;;;;;;14.50;9.90;;;;;;;9.53;100.00;98559.97;5072673;28;20200;-55
2022/11/24 07:06:50;;;;;;;12.40;9.27;;;;;;;9.52;100.00;98557.44;5072580;28;20192;-55
2022/11/24 07:09:17;;;;;;;15.00;9.77;;;;;;;9.56;100.00;98559.03;5072437;28;20244;-55
2022/11/24 07:11:44;;;;;;;12.57;9.47;;;;;;;9.60;100.00;98563.16;5073016;28;20646;-55
2022/11/24 07:14:11;;;;;;;17.93;10.63;;;;;;;9.75;100.00;98571.16;5072648;28;20286;-55
2022/11/24 07:16:39;;;;;;;14.97;10.03;;;;;;;9.75;100.00;98567.72;5072369;28;20642;-54
2022/11/24 07:19:09;;;;;;;15.53;10.03;;;;;;;9.84;100.00;98563.00;5071933;28;20222;-54
2022/11/24 07:21:36;;;;;;;17.00;10.07;;;;;;;9.94;100.00;98567.81;5071977;28;20218;-55
2022/11/24 07:24:03;;;;;;;14.97;10.27;;;;;;;10.00;100.00;98564.97;5072655;28;20238;-54
2022/11/24 07:26:30;;;;;;;16.77;9.10;;;;;;;10.14;100.00;98566.09;5070921;28;20199;-54
2022/11/24 07:28:57;;;;;;;10.40;8.70;;;;;;;10.13;100.00;98564.41;5071866;28;20261;-54
2022/11/24 07:31:24;;;;;;;9.63;8.53;;;;;;;10.25;100.00;98559.66;5071161;28;20192;-54
2022/11/24 07:33:53;;;;;;;11.33;9.30;;;;;;;10.30;100.00;98568.06;5072102;28;20257;-55
2022/11/24 07:36:22;;;;;;;10.17;8.27;;;;;;;10.21;100.00;98563.25;5071916;28;20326;-55
2022/11/24 07:38:50;;;;;;;12.87;8.77;;;;;;;10.33;100.00;98575.72;5068985;28;20594;-54
2022/11/24 07:41:19;;;;;;;16.67;10.23;;;;;;;10.19;100.00;98556.38;5068725;28;20212;-53
2022/11/24 07:43:46;;;;;;;18.00;10.90;;;;;;;10.38;100.00;98573.78;5067275;28;20223;-53
2022/11/24 07:46:16;;;;;;;17.90;10.20;;;;;;;10.38;100.00;98566.00;5071271;28;20220;-54
2022/11/24 07:48:43;;;;;;;17.37;9.80;;;;;;;10.42;100.00;98549.38;5071249;28;20227;-53
2022/11/24 07:51:10;;;;;;;13.70;10.10;;;;;;;10.59;100.00;98566.81;5070934;28;20220;-53
2022/11/24 07:53:39;;;;;;;19.33;13.03;;;;;;;10.61;100.00;98559.81;5071620;28;20613;-53
2022/11/24 07:56:07;;;;;;;14.20;10.90;;;;;;;10.63;100.00;98557.97;5070666;28;20227;-54
2022/11/24 07:58:35;;;;;;;17.33;12.30;;;;;;;10.74;100.00;98559.16;5070770;28;20442;-56
2022/11/24 08:01:10;;;;;;;21.50;10.80;;;;;;;10.75;100.00;98562.59;5071114;28;20631;-55
2022/11/24 08:03:37;;;;;;;25.90;17.33;;;;;;;10.81;100.00;98558.00;5071216;28;20260;-55
2022/11/24 08:06:05;;;;;;;17.20;12.30;;;;;;;10.88;100.00;98559.41;5071938;28;20250;-56
2022/11/24 08:08:33;;;;;;;19.50;11.60;;;;;;;10.93;100.00;98558.34;5071542;28;20239;-59
2022/11/24 08:11:07;;;;;;;19.90;11.17;;;;;;;11.01;100.00;98566.63;5071839;28;20600;-58
2022/11/24 08:13:34;;;;;;;12.93;10.17;;;;;;;11.04;100.00;98561.31;5071648;28;20289;-57
2022/11/24 08:16:05;;;;;;;17.40;9.93;;;;;;;11.03;100.00;98557.03;5071526;28;20322;-56
2022/11/24 08:18:32;;;;;;;14.27;9.40;;;;;;;11.04;100.00;98567.34;5071609;28;20204;-57
2022/11/24 08:20:59;;;;;;;13.90;9.93;;;;;;;11.15;100.00;98559.91;5071823;28;20207;-56
2022/11/24 08:23:26;;;;;;;15.50;11.07;;;;;;;11.25;100.00;98563.75;5071651;28;20632;-57
2022/11/24 08:25:55;;;;;;;16.13;12.60;;;;;;;11.34;100.00;98567.66;5071376;28;20196;-56
2022/11/24 08:28:24;;;;;;;20.33;11.37;;;;;;;11.46;100.00;98556.69;5071376;28;20238;-57
2022/11/24 08:30:51;;;;;;;15.53;12.53;;;;;;;11.59;100.00;98556.97;5071327;28;20202;-55
2022/11/24 08:33:17;;;;;;;22.57;16.87;;;;;;;11.70;100.00;98565.06;5070391;28;20204;-57
2022/11/24 08:35:44;;;;;;;19.50;12.50;;;;;;;11.77;100.00;98565.63;5071337;28;20204;-57
2022/11/24 08:38:11;;;;;;;13.27;10.73;;;;;;;11.82;100.00;98559.31;5070280;28;20206;-57
2022/11/24 08:40:38;;;;;;;14.17;11.23;;;;;;;11.94;100.00;98563.91;5050530;28;20208;-57
2022/11/24 08:43:05;;;;;;;17.20;12.60;;;;;;;12.02;100.00;98566.13;5051054;28;20204;-53
2022/11/24 08:45:33;;;;;;;22.83;13.70;;;;;;;12.08;100.00;98555.41;5051039;28;20673;-54
2022/11/24 08:48:00;;;;;;;20.57;13.50;;;;;;;12.16;100.00;98557.63;5051305;28;20742;-54
2022/11/24 08:50:27;;;;;;;14.80;9.97;;;;;;;12.26;100.00;98559.69;5050968;28;20712;-57
2022/11/24 08:52:54;;;;;;;11.93;8.30;;;;;;;12.34;100.00;98565.34;5050402;28;20196;-53
2022/11/24 08:55:21;;;;;;;8.47;7.73;;;;;;;12.45;100.00;98564.78;5050299;28;20669;-53
2022/11/24 08:57:48;;;;;;;9.27;7.03;;;;;;;12.56;100.00;98562.47;5050459;28;20240;-53
2022/11/24 09:00:21;;;;;;;9.67;6.33;;;;;;;12.67;100.00;98569.72;5050223;28;20219;-53
2022/11/24 09:02:56;;;;;;;11.97;6.97;;;;;;;12.80;100.00;98564.72;5050400;28;20200;-55
2022/11/24 09:05:22;;;;;;;8.53;6.83;;;;;;;12.89;100.00;98549.44;5050160;28;20194;-53
2022/11/24 09:07:49;;;;;;;9.97;6.83;;;;;;;13.00;100.00;98557.53;5066814;28;20815;-51
2022/11/24 09:10:17;;;;;;;15.73;7.00;;;;;;;13.08;100.00;98560.56;5069384;28;20198;-51
2022/11/24 09:12:45;;;;;;;9.30;6.03;;;;;;;13.13;100.00;98541.22;5070581;28;20649;-52
2022/11/24 09:15:12;;;;;;;6.83;5.93;;;;;;;13.19;100.00;98552.19;5070550;28;20200;-52
2022/11/24 09:17:39;;;;;;;11.10;7.07;;;;;;;13.31;100.00;98554.13;5070539;28;20315;-50
2022/11/24 09:20:08;;;;;;;10.57;7.27;;;;;;;13.39;100.00;98546.72;5070225;28;20196;-53
2022/11/24 09:22:36;;;;;;;9.50;7.87;;;;;;;13.44;100.00;98546.44;5070499;28;20199;-52
2022/11/24 09:25:04;;;;;;;11.97;7.50;;;;;;;13.58;100.00;98551.75;5070179;28;20195;-53
2022/11/24 09:27:31;;;;;;;8.17;6.57;;;;;;;13.68;100.00;98550.28;5070556;28;20200;-51
2022/11/24 09:29:58;;;;;;;10.50;6.77;;;;;;;13.83;100.00;98551.19;5070319;28;20195;-52
2022/11/24 09:32:25;;;;;;;8.63;6.50;;;;;;;13.97;100.00;98546.03;5069920;28;20200;-51
2022/11/24 09:34:52;;;;;;;8.10;6.23;;;;;;;14.10;100.00;98541.78;5070084;28;20204;-52
2022/11/24 09:37:20;;;;;;;9.90;6.90;;;;;;;14.12;100.00;98545.13;5069657;28;20619;-52
2022/11/24 09:39:47;;;;;;;11.10;6.10;;;;;;;14.25;100.00;98542.63;5069515;28;20206;-52
2022/11/24 09:42:16;;;;;;;7.77;5.90;;;;;;;14.32;100.00;98543.97;5069846;28;20263;-54
2022/11/24 09:45:03;;;;;;;12.53;7.47;;;;;;;14.36;100.00;98532.41;5067708;28;20196;-53
2022/11/24 09:47:41;;;;;;;10.03;6.43;;;;;;;14.41;100.00;98530.41;5069869;28;20196;-51
2022/11/24 09:50:15;;;;;;;14.50;10.10;;;;;;;14.51;100.00;98530.69;5070109;28;20202;-52
2022/11/24 09:52:50;;;;;;;22.33;10.87;;;;;;;14.59;100.00;98527.59;5070366;28;20209;-53
2022/11/24 09:55:33;;;;;;;15.70;10.10;;;;;;;14.67;99.69;98527.97;5070177;28;20192;-53
2022/11/24 09:58:19;;;;;;;15.63;10.37;;;;;;;14.72;100.00;98520.69;5069858;28;20219;-53
2022/11/24 10:00:50;;;;;;;22.07;11.73;;;;;;;14.87;98.78;98522.38;5066977;28;20203;-53
2022/11/24 10:03:23;;;;;;;10.87;9.40;;;;;;;14.95;98.47;98522.72;5070158;28;20658;-52
2022/11/24 10:05:51;;;;;;;9.47;6.07;;;;;;;15.04;97.08;98522.13;5069593;28;20206;-52
2022/11/24 10:08:39;;;;;;;7.87;5.10;;;;;;;15.12;96.37;98519.88;5068424;28;20311;-52
2022/11/24 10:11:12;;;;;;;7.17;3.60;;;;;;;15.29;94.36;98517.97;5067358;28;20200;-52
2022/11/24 10:14:04;;;;;;;5.93;3.63;;;;;;;15.39;93.73;98512.06;5069326;28;20207;-52
2022/11/24 10:16:45;;;;;;;3.67;3.20;;;;;;;15.57;92.99;98524.00;5069023;28;20224;-52
2022/11/24 10:19:24;;;;;;;5.17;4.10;;;;;;;15.68;92.56;98512.84;5069303;28;20199;-52
2022/11/24 10:22:04;;;;;;;3.87;3.57;;;;;;;15.83;92.00;98501.34;5067560;28;20196;-50
2022/11/24 10:25:18;;;;;;;7.13;4.10;;;;;;;15.91;91.70;98508.72;5068433;28;20202;-52
2022/11/24 10:27:48;;;;;;;7.80;5.73;;;;;;;16.04;90.56;98516.56;4985452;28;20209;-52
2022/11/24 10:30:18;;;;;;;24.83;17.50;;;;;;;16.07;91.35;98508.50;5060796;28;20204;-51
2022/11/24 10:32:47;;;;;;;15.07;10.57;;;;;;;16.04;89.38;98504.31;5069215;28;20207;-52
2022/11/24 10:35:19;;;;;;;8.23;4.30;;;;;;;16.26;92.61;98506.31;5069107;28;20719;-54
2022/11/24 10:38:02;;;;;;;14.63;8.87;;;;;;;16.46;89.59;98503.19;5068067;28;20222;-54
2022/11/24 10:40:38;;;;;;;12.73;9.77;;;;;;;16.62;88.68;98503.00;5062609;28;20192;-53
2022/11/24 10:43:09;;;;;;;7.10;5.53;;;;;;;16.72;87.49;98505.78;5066491;28;20310;-52
2022/11/24 10:45:38;;;;;;;10.93;8.53;;;;;;;16.79;87.31;98505.28;5066002;28;20203;-53
2022/11/24 10:48:10;;;;;;;6.30;5.70;;;;;;;16.85;86.28;98515.31;5068170;28;20199;-52
2022/11/24 10:50:40;;;;;;;14.67;8.57;;;;;;;16.88;85.44;98509.88;5069041;28;20199;-58
2022/11/24 10:53:17;;;;;;;4.37;3.97;;;;;;;16.84;83.40;98508.41;5068719;28;20202;-58
2022/11/24 10:56:09;;;;;;;6.87;4.70;;;;;;;16.78;82.80;98521.94;5069503;28;20630;-58
2022/11/24 10:58:38;;;;;;;3.63;3.28;;;;;;;16.80;82.97;98517.44;5052339;28;20231;-58
2022/11/24 11:01:21;;;;;;;3.90;2.83;;;;;;;16.86;83.15;98510.91;5069483;28;20196;-58
2022/11/24 11:03:50;;;;;;;5.57;3.73;;;;;;;16.88;82.78;98509.03;5069836;28;20199;-58
2022/11/24 11:06:22;;;;;;;15.35;3.45;;;;;;;17.00;81.45;98513.41;5071765;28;20198;-57
2022/11/24 11:08:49;;;;;;;7.70;2.90;;;;;;;17.09;80.44;98510.13;5069580;28;20230;-58
2022/11/24 11:11:22;;;;;;;24.75;5.65;;;;;;;17.09;81.20;98501.44;5071859;28;20688;-58
2022/11/24 11:13:54;;;;;;;13.85;3.60;;;;;;;17.11;81.19;98500.38;5069806;28;20192;-57
2022/11/24 11:16:35;;;;;;;9.15;3.60;;;;;;;17.04;81.27;98510.44;5071566;28;20212;-58
2022/11/24 11:19:04;;;;;;;13.98;4.72;;;;;;;16.87;82.32;98491.63;5071621;28;20590;-57
2022/11/24 11:21:37;;;;;;;8.32;3.92;;;;;;;16.86;82.92;98506.50;5071330;28;20192;-56
2022/11/24 11:24:13;;;;;;;4.50;3.40;;;;;;;16.74;83.32;98514.41;5070957;28;20203;-57
2022/11/24 11:26:42;;;;;;;10.90;3.92;;;;;;;16.67;83.38;98501.75;5072189;28;20195;-52
2022/11/24 11:29:20;;;;;;;12.10;3.42;;;;;;;16.55;83.98;98501.72;5071183;28;20879;-52
2022/11/24 11:31:59;;;;;;;6.73;3.63;;;;;;;16.50;84.19;98504.63;5069265;28;20199;-58